createdAt,value
2022-11-05T00:04:20.890Z,9.70
2022-11-05T00:09:22.515Z,9.70
2022-11-05T00:14:24.254Z,9.60
2022-11-05T00:19:25.802Z,9.60
2022-11-05T00:24:27.473Z,9.60
2022-11-05T00:29:29.499Z,9.60
2022-11-05T00:34:31.302Z,9.60
2022-11-05T00:39:33.039Z,9.60
2022-11-05T00:44:34.781Z,9.60
2022-11-05T00:49:36.562Z,9.50
2022-11-05T00:54:38.289Z,9.50
2022-11-05T00:59:40.066Z,9.50
2022-11-05T01:04:41.809Z,9.40
2022-11-05T01:09:43.579Z,9.20
2022-11-05T01:14:45.333Z,9.10
2022-11-05T01:19:47.111Z,9.00
2022-11-05T01:24:48.813Z,8.90
2022-11-05T01:29:50.604Z,8.80
2022-11-05T01:34:52.470Z,8.80
2022-11-05T01:39:54.090Z,8.80
2022-11-05T01:44:55.939Z,8.70
2022-11-05T01:49:57.597Z,8.70
2022-11-05T01:54:59.365Z,8.70
2022-11-05T02:00:01.181Z,8.70
2022-11-05T02:05:02.943Z,8.70
2022-11-05T02:10:04.620Z,8.60
2022-11-05T02:15:06.367Z,8.60
2022-11-05T02:20:08.141Z,8.60
2022-11-05T02:25:09.873Z,8.60
2022-11-05T02:30:11.644Z,8.60
2022-11-05T02:35:13.518Z,8.60
2022-11-05T02:40:15.216Z,8.50
2022-11-05T02:45:17.203Z,8.50
2022-11-05T02:50:19.298Z,8.50
2022-11-05T02:55:21.157Z,8.50
2022-11-05T03:00:22.770Z,8.50
2022-11-05T03:05:24.528Z,8.50
2022-11-05T03:10:26.297Z,8.50
2022-11-05T03:15:27.826Z,8.50
2022-11-05T03:20:29.483Z,8.40
2022-11-05T03:25:31.234Z,8.40
2022-11-05T03:30:32.992Z,8.40
2022-11-05T03:35:34.789Z,8.40
2022-11-05T03:40:36.506Z,8.40
2022-11-05T03:45:38.307Z,8.40
2022-11-05T03:50:41.525Z,8.40
2022-11-05T03:55:43.334Z,8.40
2022-11-05T04:00:44.873Z,8.40
2022-11-05T04:05:46.669Z,8.40
2022-11-05T04:10:48.348Z,8.40
2022-11-05T04:15:50.244Z,8.40
2022-11-05T04:20:51.796Z,8.40
2022-11-05T04:25:53.343Z,8.40
2022-11-05T04:30:54.948Z,8.40
2022-11-05T04:35:56.673Z,8.40
2022-11-05T04:40:58.362Z,8.40
2022-11-05T04:45:59.928Z,8.40
2022-11-05T04:51:01.684Z,8.40
2022-11-05T04:56:03.456Z,8.40
2022-11-05T05:01:05.254Z,8.40
2022-11-05T05:06:06.980Z,8.40
2022-11-05T05:11:08.744Z,8.40
2022-11-05T05:16:10.443Z,8.40
2022-11-05T05:21:11.970Z,8.40
2022-11-05T05:26:13.646Z,8.40
2022-11-05T05:31:15.422Z,8.40
2022-11-05T05:36:17.169Z,8.40
2022-11-05T05:41:19.028Z,8.40
2022-11-05T05:46:20.662Z,8.40
2022-11-05T05:51:22.421Z,8.40
2022-11-05T05:56:24.172Z,8.40
2022-11-05T06:01:26.033Z,8.40
2022-11-05T06:06:27.816Z,8.40
2022-11-05T06:11:29.442Z,8.40
2022-11-05T06:16:31.225Z,8.50
2022-11-05T06:21:32.976Z,8.50
2022-11-05T06:26:34.673Z,8.50
2022-11-05T06:31:36.453Z,8.50
2022-11-05T06:36:38.189Z,8.50
2022-11-05T06:42:03.827Z,8.50
2022-11-05T06:47:01.482Z,8.50
2022-11-05T06:52:03.214Z,8.50
2022-11-05T06:57:04.997Z,8.60
2022-11-05T07:02:06.837Z,8.60
2022-11-05T07:07:08.483Z,8.60
2022-11-05T07:12:10.221Z,8.60
2022-11-05T07:17:11.971Z,8.60
2022-11-05T07:22:13.741Z,8.70
2022-11-05T07:27:15.279Z,8.70
2022-11-05T07:32:16.832Z,8.70
2022-11-05T07:37:18.364Z,8.80
2022-11-05T07:42:20.119Z,8.80
2022-11-05T07:47:21.884Z,8.80
2022-11-05T07:52:23.432Z,8.90
2022-11-05T07:57:25.094Z,9.00
2022-11-05T08:02:27.044Z,9.10
2022-11-05T08:07:28.791Z,9.20
2022-11-05T08:12:30.398Z,9.20
2022-11-05T08:17:31.959Z,9.20
2022-11-05T08:22:33.640Z,9.40
2022-11-05T08:27:35.324Z,9.40
2022-11-05T08:32:36.969Z,9.50
2022-11-05T08:37:38.833Z,9.60
2022-11-05T08:42:40.566Z,9.70
2022-11-05T08:47:42.299Z,9.80
2022-11-05T08:52:44.058Z,9.80
2022-11-05T08:57:45.814Z,9.90
2022-11-05T09:02:47.592Z,10.00
2022-11-05T09:07:49.312Z,10.00
2022-11-05T09:12:51.372Z,10.00
2022-11-05T09:17:53.192Z,10.10
2022-11-05T09:22:54.798Z,10.20
2022-11-05T09:27:56.343Z,10.30
2022-11-05T09:32:58.192Z,10.50
2022-11-05T09:38:01.140Z,10.50
2022-11-05T09:43:03.183Z,10.50
2022-11-05T09:48:04.929Z,10.70
2022-11-05T09:53:06.682Z,10.80
2022-11-05T09:58:08.428Z,11.00
2022-11-05T10:03:10.415Z,11.00
2022-11-05T10:08:12.234Z,11.00
2022-11-05T10:13:14.176Z,11.20
2022-11-05T10:18:16.134Z,11.20
2022-11-05T10:23:17.717Z,11.40
2022-11-05T10:28:19.277Z,11.40
2022-11-05T10:33:21.022Z,11.40
2022-11-05T10:38:22.757Z,11.40
2022-11-05T10:43:24.961Z,11.50
2022-11-05T10:48:26.614Z,11.70
2022-11-05T10:53:28.353Z,11.80
2022-11-05T10:58:30.117Z,11.90
2022-11-05T11:03:32.024Z,12.00
2022-11-05T11:08:33.639Z,12.10
2022-11-05T11:13:35.379Z,12.10
2022-11-05T11:18:40.045Z,12.20
2022-11-05T11:23:42.025Z,12.20
2022-11-05T11:28:44.022Z,12.10
2022-11-05T11:33:45.834Z,12.00
2022-11-05T11:38:47.364Z,12.00
2022-11-05T11:43:49.026Z,12.10
2022-11-05T11:48:50.539Z,12.20
2022-11-05T11:53:52.178Z,12.20
2022-11-05T11:58:53.989Z,12.30
2022-11-05T12:03:55.719Z,12.40
2022-11-05T12:09:05.146Z,12.40
2022-11-05T12:14:08.381Z,12.40
2022-11-05T12:19:16.269Z,12.40
2022-11-05T12:24:18.009Z,12.50
2022-11-05T12:29:19.876Z,12.50
2022-11-05T12:34:21.892Z,12.60
2022-11-05T12:39:23.436Z,12.80
2022-11-05T12:44:25.137Z,13.00
2022-11-05T12:49:26.902Z,13.10
2022-11-05T12:54:28.641Z,13.30
2022-11-05T12:59:30.414Z,13.40
2022-11-05T13:04:32.123Z,13.40
2022-11-05T13:09:33.631Z,13.40
2022-11-05T13:14:35.305Z,13.30
2022-11-05T13:19:37.093Z,13.20
2022-11-05T13:24:38.917Z,13.20
2022-11-05T13:29:40.637Z,13.10
2022-11-05T13:34:42.425Z,13.10
2022-11-05T13:39:44.131Z,13.10
2022-11-05T13:44:45.874Z,13.00
2022-11-05T13:49:47.639Z,12.90
2022-11-05T13:54:49.374Z,12.90
2022-11-05T13:59:51.108Z,12.90
2022-11-05T14:04:56.670Z,12.80
2022-11-05T14:10:01.659Z,12.80
2022-11-05T14:15:03.290Z,12.70
2022-11-05T14:20:05.021Z,12.70
2022-11-05T14:25:06.773Z,12.60
2022-11-05T14:30:08.570Z,12.60
2022-11-05T14:35:10.304Z,12.50
2022-11-05T14:40:12.071Z,12.50
2022-11-05T14:45:13.793Z,12.50
2022-11-05T14:50:15.523Z,12.30
2022-11-05T14:55:17.294Z,12.10
2022-11-05T15:00:19.070Z,12.00
2022-11-05T15:05:20.804Z,11.80
2022-11-05T15:10:22.564Z,11.70
2022-11-05T15:15:24.404Z,11.60
2022-11-05T15:20:26.081Z,11.40
2022-11-05T15:25:27.857Z,11.20
2022-11-05T15:30:29.589Z,11.00
2022-11-05T15:35:31.171Z,10.90
2022-11-05T15:40:32.801Z,10.70
2022-11-05T15:45:34.955Z,10.60
2022-11-05T15:50:36.616Z,10.50
2022-11-05T15:55:38.153Z,10.30
2022-11-05T16:00:39.800Z,10.10
2022-11-05T16:05:41.556Z,10.00
2022-11-05T16:10:43.302Z,9.90
2022-11-05T16:15:44.966Z,9.80
2022-11-05T16:20:46.813Z,9.60
2022-11-05T16:25:48.608Z,9.50
2022-11-05T16:30:50.319Z,9.30
2022-11-05T16:35:52.087Z,9.20
2022-11-05T16:40:53.839Z,9.10
2022-11-05T16:45:55.579Z,9.00
2022-11-05T16:50:57.342Z,8.90
2022-11-05T16:55:59.093Z,8.70
2022-11-05T17:01:00.895Z,8.60
2022-11-05T17:06:02.753Z,8.50
2022-11-05T17:11:04.349Z,8.50
2022-11-05T17:16:06.131Z,8.40
2022-11-05T17:21:07.875Z,8.30
2022-11-05T17:26:09.610Z,8.20
2022-11-05T17:31:12.398Z,8.20
2022-11-05T17:36:14.073Z,8.10
2022-11-05T17:41:15.833Z,8.00
2022-11-05T17:46:17.379Z,7.90
2022-11-05T17:51:19.094Z,7.90
2022-11-05T17:56:32.152Z,7.80
2022-11-05T18:01:35.510Z,7.70
2022-11-05T18:06:37.454Z,7.70
2022-11-05T18:11:39.202Z,7.60
2022-11-05T18:16:40.975Z,7.50
2022-11-05T18:21:42.731Z,7.30
2022-11-05T18:26:44.443Z,7.30
2022-11-05T18:31:46.209Z,7.20
2022-11-05T18:36:52.071Z,7.20
2022-11-05T18:47:29.257Z,7.10
2022-11-05T18:52:30.838Z,6.90
2022-11-05T18:57:32.354Z,6.80
2022-11-05T19:02:34.238Z,6.70
2022-11-05T19:07:36.097Z,6.60
2022-11-05T19:12:37.865Z,6.50
2022-11-05T19:17:39.613Z,6.40
2022-11-05T19:22:41.376Z,6.30
2022-11-05T19:27:43.166Z,6.30
2022-11-05T19:32:44.895Z,6.20
2022-11-05T19:37:46.623Z,6.10
2022-11-05T19:42:48.155Z,6.00
2022-11-05T19:52:17.458Z,5.80
2022-11-05T19:57:39.278Z,5.80
2022-11-05T20:03:01.251Z,5.60
2022-11-05T20:08:23.502Z,5.50
2022-11-05T20:13:45.318Z,5.50
2022-11-05T20:19:07.146Z,5.40
2022-11-05T20:24:28.970Z,5.30
2022-11-05T20:29:50.800Z,5.20
2022-11-05T20:35:12.669Z,5.20
2022-11-05T20:40:34.502Z,5.20
2022-11-05T20:45:56.329Z,5.20
2022-11-05T20:51:18.465Z,5.10
2022-11-05T20:56:40.273Z,5.10
2022-11-05T21:02:02.231Z,5.00
2022-11-05T21:07:24.139Z,5.00
2022-11-05T21:12:45.981Z,4.90
2022-11-05T21:18:07.823Z,4.80
2022-11-05T21:23:29.658Z,4.90
2022-11-05T21:28:51.684Z,4.80
2022-11-05T21:34:13.501Z,4.70
2022-11-05T21:39:35.656Z,4.60
2022-11-05T21:45:00.386Z,4.60
2022-11-05T21:50:22.593Z,4.50
2022-11-05T21:55:44.436Z,4.50
2022-11-05T22:01:06.277Z,4.40
2022-11-05T22:06:28.101Z,4.40
2022-11-05T22:11:49.911Z,4.30
2022-11-05T22:17:11.727Z,4.20
2022-11-05T22:22:33.605Z,4.20
2022-11-05T22:27:55.515Z,4.10
2022-11-05T22:33:17.345Z,4.00
2022-11-05T22:38:39.154Z,4.00
2022-11-05T22:44:00.972Z,3.70
2022-11-05T22:49:22.799Z,3.70
2022-11-05T22:54:44.632Z,3.80
2022-11-05T23:00:06.450Z,3.90
2022-11-05T23:05:28.268Z,3.80
2022-11-05T23:10:50.130Z,3.60
2022-11-05T23:16:11.958Z,3.50
2022-11-05T23:21:33.773Z,3.50
2022-11-05T23:26:55.576Z,3.40
2022-11-05T23:32:17.381Z,3.30
2022-11-05T23:37:39.335Z,3.20
2022-11-05T23:43:01.157Z,3.30
2022-11-05T23:48:22.985Z,3.20
2022-11-05T23:53:44.823Z,3.20
2022-11-05T23:59:06.660Z,3.10
